Time,TemperatureF,DewpointF,PressureIn,WindDirection,WindDirectionDegrees,WindSpeedMPH,WindSpeedGustMPH,Humidity,HourlyPrecipIn,Conditions,Clouds,dailyrainin,SoftwareType,DateUTC
2013-05-20 00:06:00,74.9,71.0,30.09,SE,127,1.0,5.0,86,0.00,,,0.00,weatherlink.com 1.10,2013-05-20 04:06:00,
2013-05-20 00:22:00,74.5,71.0,30.08,East,96,0.0,0.0,87,0.00,,,0.00,weatherlink.com 1.10,2013-05-20 04:22:00,
2013-05-20 00:37:00,74.2,71.0,30.08,SSE,155,0.0,0.0,88,0.00,,,0.00,weatherlink.com 1.10,2013-05-20 04:37:00,
2013-05-20 00:52:00,73.7,70.0,30.08,SE,136,0.0,0.0,89,0.00,,,0.00,weatherlink.com 1.10,2013-05-20 04:52:00,
2013-05-20 01:07:00,73.6,70.0,30.07,East,91,0.0,0.0,89,0.00,,,0.00,weatherlink.com 1.10,2013-05-20 05:07:00,
2013-05-20 01:22:00,73.6,70.0,30.06,South,169,0.0,0.0,89,0.00,,,0.00,weatherlink.com 1.10,2013-05-20 05:22:00,
2013-05-20 01:37:00,73.2,70.0,30.06,SSE,147,0.0,0.0,90,0.00,,,0.00,weatherlink.com 1.10,2013-05-20 05:37:00,
2013-05-20 01:52:00,72.9,70.0,30.05,SE,138,0.0,0.0,90,0.00,,,0.00,weatherlink.com 1.10,2013-05-20 05:52:00,
2013-05-20 02:07:00,72.6,70.0,30.05,SSE,153,0.0,0.0,90,0.00,,,0.00,weatherlink.com 1.10,2013-05-20 06:07:00,
2013-05-20 02:22:00,72.2,70.0,30.04,SSE,153,0.0,0.0,91,0.00,,,0.00,weatherlink.com 1.10,2013-05-20 06:22:00,
2013-05-20 02:37:00,71.8,69.0,30.03,SSE,152,0.0,0.0,92,0.00,,,0.00,weatherlink.com 1.10,2013-05-20 06:37:00,
2013-05-20 02:52:00,71.8,70.0,30.02,SE,127,0.0,0.0,93,0.00,,,0.00,weatherlink.com 1.10,2013-05-20 06:52:00,
2013-05-20 03:07:00,71.7,69.0,30.01,South,173,0.0,4.0,92,0.00,,,0.00,weatherlink.com 1.10,2013-05-20 07:07:00,
2013-05-20 03:23:00,71.7,69.0,30.01,ESE,113,0.0,3.0,92,0.00,,,0.00,weatherlink.com 1.10,2013-05-20 07:23:00,
2013-05-20 03:37:00,71.5,69.0,30.01,SE,128,1.0,2.0,93,0.00,,,0.00,weatherlink.com 1.10,2013-05-20 07:37:00,
2013-05-20 03:52:00,71.4,69.0,30.01,SSE,147,0.0,3.0,93,0.00,,,0.00,weatherlink.com 1.10,2013-05-20 07:52:00,
2013-05-20 04:07:00,71.2,69.0,30.01,ESE,107,0.0,1.0,93,0.00,,,0.00,weatherlink.com 1.10,2013-05-20 08:07:00,
2013-05-20 04:22:00,70.9,69.0,30.01,SE,136,0.0,0.0,94,0.00,,,0.00,weatherlink.com 1.10,2013-05-20 08:22:00,
2013-05-20 04:37:00,70.5,69.0,30.02,SE,135,0.0,0.0,95,0.00,,,0.00,weatherlink.com 1.10,2013-05-20 08:37:00,
2013-05-20 04:52:00,70.2,69.0,30.01,SE,134,0.0,0.0,95,0.00,,,0.00,weatherlink.com 1.10,2013-05-20 08:52:00,
2013-05-20 05:07:00,69.9,69.0,30.02,SE,136,0.0,0.0,96,0.00,,,0.00,weatherlink.com 1.10,2013-05-20 09:07:00,
2013-05-20 05:22:00,69.5,68.0,30.02,SE,135,0.0,0.0,96,0.00,,,0.00,weatherlink.com 1.10,2013-05-20 09:22:00,
2013-05-20 05:37:00,69.7,69.0,30.02,SE,136,0.0,0.0,97,0.00,,,0.00,weatherlink.com 1.10,2013-05-20 09:37:00,
2013-05-20 05:52:00,69.5,69.0,30.02,SE,135,0.0,0.0,97,0.00,,,0.00,weatherlink.com 1.10,2013-05-20 09:52:00,
2013-05-20 06:07:00,69.9,69.0,30.03,SE,135,0.0,0.0,98,0.00,,,0.00,weatherlink.com 1.10,2013-05-20 10:07:00,
2013-05-20 06:22:00,70.1,69.0,30.02,SE,134,0.0,0.0,97,0.00,,,0.00,weatherlink.com 1.10,2013-05-20 10:22:00,
2013-05-20 06:37:00,70.1,69.0,30.03,ESE,105,0.0,0.0,97,0.00,,,0.00,weatherlink.com 1.10,2013-05-20 10:37:00,
2013-05-20 06:52:00,70.2,69.0,30.04,ESE,105,0.0,0.0,97,0.00,,,0.00,weatherlink.com 1.10,2013-05-20 10:52:00,
2013-05-20 07:07:00,70.5,70.0,30.04,ESE,103,0.0,0.0,97,0.00,,,0.00,weatherlink.com 1.10,2013-05-20 11:07:00,
2013-05-20 07:22:00,70.6,70.0,30.05,ESE,103,0.0,0.0,97,0.00,,,0.00,weatherlink.com 1.10,2013-05-20 11:22:00,
2013-05-20 07:37:00,71.1,70.0,30.05,ESE,103,0.0,1.0,97,0.00,,,0.00,weatherlink.com 1.10,2013-05-20 11:37:00,
2013-05-20 07:53:00,72.1,71.0,30.06,ESE,103,0.0,0.0,96,0.00,,,0.00,weatherlink.com 1.10,2013-05-20 11:53:00,
2013-05-20 08:08:00,73.3,72.0,30.06,SE,130,0.0,0.0,94,0.00,,,0.00,weatherlink.com 1.10,2013-05-20 12:08:00,
2013-05-20 08:23:00,74.4,72.0,30.06,SE,131,2.0,3.0,91,0.00,,,0.00,weatherlink.com 1.10,2013-05-20 12:23:00,
2013-05-20 08:38:00,74.8,72.0,30.07,East,91,2.0,4.0,90,0.00,,,0.00,weatherlink.com 1.10,2013-05-20 12:38:00,
2013-05-20 08:53:00,75.7,72.0,30.07,SE,142,1.0,5.0,88,0.00,,,0.00,weatherlink.com 1.10,2013-05-20 12:53:00,
2013-05-20 09:08:00,76.8,73.0,30.07,South,186,2.0,4.0,87,0.00,,,0.00,weatherlink.com 1.10,2013-05-20 13:08:00,
2013-05-20 09:23:00,78.2,73.0,30.07,East,83,6.0,7.0,83,0.00,,,0.00,weatherlink.com 1.10,2013-05-20 13:23:00,
2013-05-20 09:38:00,79.8,74.0,30.07,SE,127,1.0,7.0,82,0.00,,,0.00,weatherlink.com 1.10,2013-05-20 13:38:00,
2013-05-20 09:53:00,81.0,74.0,30.07,SSE,167,3.0,10.0,79,0.00,,,0.00,weatherlink.com 1.10,2013-05-20 13:53:00,
2013-05-20 10:08:00,82.7,73.0,30.07,SE,131,2.0,8.0,73,0.00,,,0.00,weatherlink.com 1.10,2013-05-20 14:08:00,
2013-05-20 10:23:00,83.1,73.0,30.07,SE,145,4.0,7.0,71,0.00,,,0.00,weatherlink.com 1.10,2013-05-20 14:23:00,
2013-05-20 10:38:00,82.8,73.0,30.07,ENE,76,1.0,6.0,71,0.00,,,0.00,weatherlink.com 1.10,2013-05-20 14:38:00,
2013-05-20 10:53:00,84.1,73.0,30.07,East,87,2.0,6.0,70,0.00,,,0.00,weatherlink.com 1.10,2013-05-20 14:53:00,
2013-05-20 11:08:00,83.8,73.0,30.07,SE,138,4.0,7.0,69,0.00,,,0.00,weatherlink.com 1.10,2013-05-20 15:08:00,
2013-05-20 11:23:00,83.7,73.0,30.06,ESE,104,0.0,6.0,69,0.00,,,0.00,weatherlink.com 1.10,2013-05-20 15:23:00,
2013-05-20 11:38:00,86.9,73.0,30.06,SSW,201,3.0,6.0,63,0.00,,,0.00,weatherlink.com 1.10,2013-05-20 15:38:00,
2013-05-20 11:53:00,86.4,71.0,30.06,WNW,290,1.0,5.0,61,0.00,,,0.00,weatherlink.com 1.10,2013-05-20 15:53:00,
2013-05-20 12:09:00,86.4,71.0,30.06,WNW,286,3.0,4.0,60,0.00,,,0.00,weatherlink.com 1.10,2013-05-20 16:09:00,
2013-05-20 12:23:00,87.4,71.0,30.05,SE,125,2.0,6.0,58,0.00,,,0.00,weatherlink.com 1.10,2013-05-20 16:23:00,
2013-05-20 12:38:00,85.7,71.0,30.05,South,179,1.0,4.0,61,0.00,,,0.00,weatherlink.com 1.10,2013-05-20 16:38:00,
2013-05-20 12:53:00,86.6,71.0,30.04,NW,307,2.0,7.0,60,0.00,,,0.00,weatherlink.com 1.10,2013-05-20 16:53:00,
2013-05-20 13:08:00,87.4,71.0,30.03,NW,309,3.0,5.0,59,0.00,,,0.00,weatherlink.com 1.10,2013-05-20 17:08:00,
2013-05-20 13:23:00,88.3,72.0,30.02,SE,139,4.0,6.0,58,0.00,,,0.00,weatherlink.com 1.10,2013-05-20 17:23:00,
2013-05-20 13:38:00,90.3,70.0,30.02,ENE,65,1.0,6.0,52,0.00,,,0.00,weatherlink.com 1.10,2013-05-20 17:38:00,
2013-05-20 13:53:00,89.3,70.0,30.02,SSE,166,2.0,8.0,54,0.00,,,0.00,weatherlink.com 1.10,2013-05-20 17:53:00,
2013-05-20 14:08:00,90.3,69.0,30.02,SE,139,4.0,9.0,50,0.00,,,0.00,weatherlink.com 1.10,2013-05-20 18:08:00,
2013-05-20 14:23:00,89.4,69.0,30.01,North,9,3.0,5.0,52,0.00,,,0.00,weatherlink.com 1.10,2013-05-20 18:23:00,
2013-05-20 14:38:00,90.0,69.0,30.00,NNE,18,4.0,5.0,50,0.00,,,0.00,weatherlink.com 1.10,2013-05-20 18:38:00,
2013-05-20 14:53:00,91.1,69.0,29.99,ESE,123,8.0,9.0,49,0.00,,,0.00,weatherlink.com 1.10,2013-05-20 18:53:00,
2013-05-20 15:09:00,91.5,69.0,29.98,ESE,103,4.0,9.0,48,0.00,,,0.00,weatherlink.com 1.10,2013-05-20 19:09:00,
2013-05-20 15:24:00,91.1,69.0,29.98,North,11,2.0,10.0,49,0.00,,,0.00,weatherlink.com 1.10,2013-05-20 19:24:00,
2013-05-20 15:39:00,90.9,69.0,29.97,ESE,123,2.0,7.0,48,0.00,,,0.00,weatherlink.com 1.10,2013-05-20 19:39:00,
2013-05-20 15:54:00,90.4,67.0,29.96,East,98,1.0,7.0,46,0.00,,,0.00,weatherlink.com 1.10,2013-05-20 19:54:00,
2013-05-20 16:09:00,89.3,68.0,29.95,NNW,329,1.0,8.0,49,0.00,,,0.00,weatherlink.com 1.10,2013-05-20 20:09:00,
2013-05-20 16:24:00,87.9,68.0,29.95,SE,125,7.0,10.0,52,0.00,,,0.00,weatherlink.com 1.10,2013-05-20 20:24:00,
2013-05-20 16:39:00,87.5,68.0,29.96,NE,41,5.0,11.0,53,0.00,,,0.00,weatherlink.com 1.10,2013-05-20 20:39:00,
2013-05-20 16:54:00,80.6,70.0,29.99,West,281,7.0,21.0,69,0.00,,,0.00,weatherlink.com 1.10,2013-05-20 20:54:00,
2013-05-20 17:09:00,75.9,70.0,30.02,WSW,257,3.0,11.0,82,0.11,,,0.11,weatherlink.com 1.10,2013-05-20 21:09:00,
2013-05-20 17:24:00,72.5,71.0,30.00,SE,141,3.0,3.0,95,0.16,,,0.16,weatherlink.com 1.10,2013-05-20 21:24:00,
2013-05-20 17:39:00,71.7,71.0,30.00,South,170,0.0,5.0,97,0.17,,,0.17,weatherlink.com 1.10,2013-05-20 21:39:00,
2013-05-20 17:54:00,71.4,71.0,29.99,SSE,149,4.0,4.0,98,0.19,,,0.19,weatherlink.com 1.10,2013-05-20 21:54:00,
2013-05-20 18:09:00,71.1,71.0,29.97,SE,131,4.0,5.0,98,0.11,,,0.23,weatherlink.com 1.10,2013-05-20 22:09:00,
2013-05-20 18:24:00,71.3,71.0,29.97,NW,318,4.0,4.0,98,0.10,,,0.26,weatherlink.com 1.10,2013-05-20 22:24:00,
2013-05-20 18:39:00,72.1,72.0,29.99,NNW,342,3.0,8.0,99,0.13,,,0.30,weatherlink.com 1.10,2013-05-20 22:39:00,
2013-05-20 18:54:00,72.2,72.0,30.03,NW,318,7.0,9.0,99,0.15,,,0.34,weatherlink.com 1.10,2013-05-20 22:54:00,
2013-05-20 19:09:00,72.8,73.0,30.04,NE,44,0.0,5.0,99,0.11,,,0.34,weatherlink.com 1.10,2013-05-20 23:09:00,
2013-05-20 19:24:00,73.6,73.0,30.05,North,359,4.0,9.0,99,0.08,,,0.34,weatherlink.com 1.10,2013-05-20 23:24:00,
2013-05-20 19:39:00,71.7,71.0,30.06,North,11,4.0,12.0,97,0.04,,,0.34,weatherlink.com 1.10,2013-05-20 23:39:00,
2013-05-20 19:54:00,69.8,68.0,30.05,ESE,105,2.0,9.0,94,0.01,,,0.35,weatherlink.com 1.10,2013-05-20 23:54:00,
2013-05-20 20:09:00,69.8,68.0,30.05,NE,51,0.0,3.0,93,0.01,,,0.35,weatherlink.com 1.10,2013-05-21 00:09:00,
2013-05-20 20:24:00,70.8,68.0,30.04,ESE,123,0.0,5.0,91,0.01,,,0.35,weatherlink.com 1.10,2013-05-21 00:24:00,
2013-05-20 20:39:00,71.0,69.0,30.04,SE,132,1.0,4.0,92,0.01,,,0.35,weatherlink.com 1.10,2013-05-21 00:39:00,
2013-05-20 20:54:00,71.3,69.0,30.04,SSE,150,0.0,2.0,91,0.00,,,0.35,weatherlink.com 1.10,2013-05-21 00:54:00,
2013-05-20 21:09:00,71.0,69.0,30.04,South,190,1.0,2.0,93,0.00,,,0.35,weatherlink.com 1.10,2013-05-21 01:09:00,
2013-05-20 21:24:00,70.5,69.0,30.03,SE,141,0.0,1.0,94,0.00,,,0.35,weatherlink.com 1.10,2013-05-21 01:24:00,
2013-05-20 21:40:00,70.1,68.0,30.04,SE,141,1.0,5.0,93,0.00,,,0.35,weatherlink.com 1.10,2013-05-21 01:40:00,
2013-05-20 21:54:00,69.7,67.0,30.04,SE,126,0.0,2.0,92,0.00,,,0.35,weatherlink.com 1.10,2013-05-21 01:54:00,
2013-05-20 22:09:00,69.2,67.0,30.04,SE,125,0.0,0.0,92,0.00,,,0.35,weatherlink.com 1.10,2013-05-21 02:09:00,
2013-05-20 22:24:00,68.5,67.0,30.05,SE,131,0.0,1.0,94,0.00,,,0.35,weatherlink.com 1.10,2013-05-21 02:24:00,
2013-05-20 22:39:00,68.1,67.0,30.05,SSW,200,0.0,1.0,95,0.00,,,0.35,weatherlink.com 1.10,2013-05-21 02:39:00,
2013-05-20 22:54:00,67.8,66.0,30.05,SSE,166,0.0,1.0,95,0.00,,,0.35,weatherlink.com 1.10,2013-05-21 02:54:00,
2013-05-20 23:09:00,67.5,66.0,30.05,SSE,167,0.0,0.0,95,0.00,,,0.35,weatherlink.com 1.10,2013-05-21 03:09:00,
2013-05-20 23:24:00,67.2,66.0,30.04,SSE,166,0.0,0.0,95,0.00,,,0.35,weatherlink.com 1.10,2013-05-21 03:24:00,
2013-05-20 23:39:00,67.3,66.0,30.03,NNW,345,3.0,4.0,96,0.00,,,0.35,weatherlink.com 1.10,2013-05-21 03:39:00,
2013-05-20 23:54:00,67.8,67.0,30.03,North,351,1.0,2.0,96,0.00,,,0.35,weatherlink.com 1.10,2013-05-21 03:54:00,